sensor_id;sensor_type;location;lat;lon;timestamp;pressure;altitude;pressure_sealevel;temperature;humidity
59289;BME280;45056;47.602;9.886;2023-09-08T00:08:52;93294.06;;;21.21;64.01
59289;BME280;45056;47.602;9.886;2023-09-08T00:17:43;93292.31;;;21.12;64.14
59289;BME280;45056;47.602;9.886;2023-09-08T00:43:52;93284.25;;;20.91;64.02
59289;BME280;45056;47.602;9.886;2023-09-08T01:01:03;93282.22;;;20.80;64.16
59289;BME280;45056;47.602;9.886;2023-09-08T01:03:32;93284.69;;;20.78;64.43
59289;BME280;45056;47.602;9.886;2023-09-08T01:06:00;93278.16;;;20.75;64.40
59289;BME280;45056;47.602;9.886;2023-09-08T01:08:30;93279.16;;;20.72;64.37
59289;BME280;45056;47.602;9.886;2023-09-08T01:10:58;93280.16;;;20.69;64.44
59289;BME280;45056;47.602;9.886;2023-09-08T01:13:27;93274.38;;;20.67;64.88
59289;BME280;45056;47.602;9.886;2023-09-08T01:15:55;93272.59;;;20.64;64.62
59289;BME280;45056;47.602;9.886;2023-09-08T01:18:24;93278.66;;;20.63;64.94
59289;BME280;45056;47.602;9.886;2023-09-08T01:21:05;93268.06;;;20.61;64.95
59289;BME280;45056;47.602;9.886;2023-09-08T01:23:59;93266.56;;;20.60;64.94
59289;BME280;45056;47.602;9.886;2023-09-08T01:26:45;93272.09;;;20.60;64.80
59289;BME280;45056;47.602;9.886;2023-09-08T01:29:16;93268.59;;;20.59;64.68
59289;BME280;45056;47.602;9.886;2023-09-08T01:31:46;93267.81;;;20.59;64.68
59289;BME280;45056;47.602;9.886;2023-09-08T01:34:14;93268.31;;;20.57;64.71
59289;BME280;45056;47.602;9.886;2023-09-08T01:36:43;93262.03;;;20.57;64.88
59289;BME280;45056;47.602;9.886;2023-09-08T01:39:12;93266.53;;;20.54;65.12
59289;BME280;45056;47.602;9.886;2023-09-08T01:41:40;93265.81;;;20.54;65.22
59289;BME280;45056;47.602;9.886;2023-09-08T01:44:10;93267.81;;;20.53;65.33
59289;BME280;45056;47.602;9.886;2023-09-08T01:46:44;93259.50;;;20.53;65.39
59289;BME280;45056;47.602;9.886;2023-09-08T01:49:12;93253.72;;;20.51;65.39
59289;BME280;45056;47.602;9.886;2023-09-08T01:51:40;93254.25;;;20.50;65.49
59289;BME280;45056;47.602;9.886;2023-09-08T01:54:08;93252.47;;;20.46;65.57
59289;BME280;45056;47.602;9.886;2023-09-08T01:56:36;93266.78;;;20.45;65.63
59289;BME280;45056;47.602;9.886;2023-09-08T01:59:04;93251.44;;;20.44;65.60
59289;BME280;45056;47.602;9.886;2023-09-08T02:01:33;93253.44;;;20.43;65.90
59289;BME280;45056;47.602;9.886;2023-09-08T02:04:01;93253.44;;;20.43;65.98
59289;BME280;45056;47.602;9.886;2023-09-08T02:06:29;93269.28;;;20.43;65.99
59289;BME280;45056;47.602;9.886;2023-09-08T02:08:57;93256.97;;;20.44;65.62
59289;BME280;45056;47.602;9.886;2023-09-08T02:11:25;93266.53;;;20.43;65.20
59289;BME280;45056;47.602;9.886;2023-09-08T02:13:53;93263.50;;;20.41;65.00
59289;BME280;45056;47.602;9.886;2023-09-08T02:16:21;93265.50;;;20.40;65.00
59289;BME280;45056;47.602;9.886;2023-09-08T02:18:51;93264.00;;;20.39;64.81
59289;BME280;45056;47.602;9.886;2023-09-08T02:21:19;93257.72;;;20.39;64.93
59289;BME280;45056;47.602;9.886;2023-09-08T02:23:47;93261.75;;;20.38;64.86
59289;BME280;45056;47.602;9.886;2023-09-08T02:26:15;93255.69;;;20.33;64.98
59289;BME280;45056;47.602;9.886;2023-09-08T02:28:43;93254.69;;;20.31;64.91
59289;BME280;45056;47.602;9.886;2023-09-08T02:31:11;93253.41;;;20.26;65.03
59289;BME280;45056;47.602;9.886;2023-09-08T02:33:39;93259.91;;;20.23;65.12
59289;BME280;45056;47.602;9.886;2023-09-08T02:36:08;93260.44;;;20.22;65.11
59289;BME280;45056;47.602;9.886;2023-09-08T02:38:36;93255.13;;;20.18;65.29
59289;BME280;45056;47.602;9.886;2023-09-08T02:41:04;93261.44;;;20.18;65.18
59289;BME280;45056;47.602;9.886;2023-09-08T02:43:32;93259.91;;;20.17;65.39
59289;BME280;45056;47.602;9.886;2023-09-08T02:46:00;93257.91;;;20.18;65.33
59289;BME280;45056;47.602;9.886;2023-09-08T02:48:28;93260.66;;;20.18;65.18
59289;BME280;45056;47.602;9.886;2023-09-08T02:50:57;93260.66;;;20.18;64.76
59289;BME280;45056;47.602;9.886;2023-09-08T02:53:26;93248.88;;;20.17;64.83
59289;BME280;45056;47.602;9.886;2023-09-08T02:55:55;93256.38;;;20.17;64.80
59289;BME280;45056;47.602;9.886;2023-09-08T02:58:24;93258.91;;;20.15;64.93
59289;BME280;45056;47.602;9.886;2023-09-08T03:00:53;93255.88;;;20.13;65.24
59289;BME280;45056;47.602;9.886;2023-09-08T03:03:21;93255.63;;;20.11;65.36
59289;BME280;45056;47.602;9.886;2023-09-08T03:05:53;93251.56;;;20.06;65.27
59289;BME280;45056;47.602;9.886;2023-09-08T03:08:23;93258.84;;;20.03;65.41
59289;BME280;45056;47.602;9.886;2023-09-08T03:10:56;93257.09;;;20.00;65.33
59289;BME280;45056;47.602;9.886;2023-09-08T03:13:25;93247.78;;;19.98;65.09
59289;BME280;45056;47.602;9.886;2023-09-08T03:15:55;93247.03;;;19.97;65.49
59289;BME280;45056;47.602;9.886;2023-09-08T03:18:23;93247.03;;;19.97;65.42
59289;BME280;45056;47.602;9.886;2023-09-08T03:20:51;93245.50;;;19.96;65.35
59289;BME280;45056;47.602;9.886;2023-09-08T03:23:19;93239.25;;;19.96;65.28
59289;BME280;45056;47.602;9.886;2023-09-08T03:25:48;93245.25;;;19.94;65.11
59289;BME280;45056;47.602;9.886;2023-09-08T03:28:18;93245.25;;;19.94;64.79
59289;BME280;45056;47.602;9.886;2023-09-08T03:30:46;93245.00;;;19.92;64.95
59289;BME280;45056;47.602;9.886;2023-09-08T03:33:14;93248.25;;;19.91;64.90
59289;BME280;45056;47.602;9.886;2023-09-08T03:35:42;93249.00;;;19.91;64.78
59289;BME280;45056;47.602;9.886;2023-09-08T03:38:10;93247.47;;;19.90;64.42
59289;BME280;45056;47.602;9.886;2023-09-08T03:40:38;93249.22;;;19.87;64.57
59289;BME280;45056;47.602;9.886;2023-09-08T03:43:06;93245.44;;;19.85;64.48
59289;BME280;45056;47.602;9.886;2023-09-08T03:45:36;93253.47;;;19.83;64.79
59289;BME280;45056;47.602;9.886;2023-09-08T03:48:04;93246.44;;;19.82;64.80
59289;BME280;45056;47.602;9.886;2023-09-08T03:50:33;93252.94;;;19.79;64.95
59289;BME280;45056;47.602;9.886;2023-09-08T03:53:02;93253.94;;;19.75;65.07
59289;BME280;45056;47.602;9.886;2023-09-08T03:55:30;93252.91;;;19.73;65.21
59289;BME280;45056;47.602;9.886;2023-09-08T03:57:58;93249.88;;;19.71;65.27
59289;BME280;45056;47.602;9.886;2023-09-08T04:00:26;93257.16;;;19.68;65.36
59289;BME280;45056;47.602;9.886;2023-09-08T04:02:56;93250.63;;;19.66;65.25
59289;BME280;45056;47.602;9.886;2023-09-08T04:05:24;93253.38;;;19.66;65.50
59289;BME280;45056;47.602;9.886;2023-09-08T04:07:53;93247.59;;;19.64;65.66
59289;BME280;45056;47.602;9.886;2023-09-08T04:10:21;93257.84;;;19.63;65.71
59289;BME280;45056;47.602;9.886;2023-09-08T04:12:49;93256.13;;;19.66;65.74
59289;BME280;45056;47.602;9.886;2023-09-08T04:15:17;93262.13;;;19.64;65.56
59289;BME280;45056;47.602;9.886;2023-09-08T04:17:46;93255.88;;;19.64;65.22
59289;BME280;45056;47.602;9.886;2023-09-08T04:20:15;93244.06;;;19.63;64.92
59289;BME280;45056;47.602;9.886;2023-09-08T04:22:43;93253.59;;;19.62;64.56
59289;BME280;45056;47.602;9.886;2023-09-08T04:25:11;93253.34;;;19.60;64.67
59289;BME280;45056;47.602;9.886;2023-09-08T04:27:39;93259.34;;;19.58;64.67
59289;BME280;45056;47.602;9.886;2023-09-08T04:30:08;93252.06;;;19.55;64.80
59289;BME280;45056;47.602;9.886;2023-09-08T04:32:36;93260.81;;;19.54;64.88
59289;BME280;45056;47.602;9.886;2023-09-08T04:35:06;93264.56;;;19.51;64.92
59289;BME280;45056;47.602;9.886;2023-09-08T04:37:36;93266.59;;;19.50;65.05
59289;BME280;45056;47.602;9.886;2023-09-08T04:40:06;93269.06;;;19.48;64.94
59289;BME280;45056;47.602;9.886;2023-09-08T04:42:34;93268.31;;;19.48;65.08
59289;BME280;45056;47.602;9.886;2023-09-08T04:45:03;93275.09;;;19.46;64.95
59289;BME280;45056;47.602;9.886;2023-09-08T04:47:32;93272.81;;;19.45;64.98
59289;BME280;45056;47.602;9.886;2023-09-08T04:50:00;93275.03;;;19.41;64.76
59289;BME280;45056;47.602;9.886;2023-09-08T04:52:28;93275.53;;;19.39;65.02
59289;BME280;45056;47.602;9.886;2023-09-08T04:54:57;93282.31;;;19.38;65.08
59289;BME280;45056;47.602;9.886;2023-09-08T04:57:25;93279.56;;;19.38;65.24
59289;BME280;45056;47.602;9.886;2023-09-08T04:59:53;93279.56;;;19.38;65.70
59289;BME280;45056;47.602;9.886;2023-09-08T05:02:21;93286.56;;;19.39;65.51
59289;BME280;45056;47.602;9.886;2023-09-08T05:04:49;93286.56;;;19.39;65.28
59289;BME280;45056;47.602;9.886;2023-09-08T05:07:17;93278.03;;;19.37;65.06
59289;BME280;45056;47.602;9.886;2023-09-08T05:09:46;93286.31;;;19.37;64.81
59289;BME280;45056;47.602;9.886;2023-09-08T05:12:15;93285.06;;;19.38;64.96
59289;BME280;45056;47.602;9.886;2023-09-08T05:14:43;93292.56;;;19.38;65.00
59289;BME280;45056;47.602;9.886;2023-09-08T05:17:11;93299.59;;;19.39;64.99
59289;BME280;45056;47.602;9.886;2023-09-08T05:19:39;93297.09;;;19.41;64.96
59289;BME280;45056;47.602;9.886;2023-09-08T05:22:07;93293.09;;;19.42;64.79
59289;BME280;45056;47.602;9.886;2023-09-08T05:24:35;93292.63;;;19.43;64.83
59289;BME280;45056;47.602;9.886;2023-09-08T05:27:04;93295.38;;;19.43;64.87
59289;BME280;45056;47.602;9.886;2023-09-08T05:29:33;93292.34;;;19.41;65.14
59289;BME280;45056;47.602;9.886;2023-09-08T05:32:01;93282.56;;;19.40;65.38
59289;BME280;45056;47.602;9.886;2023-09-08T05:34:29;93304.41;;;19.44;65.38
59289;BME280;45056;47.602;9.886;2023-09-08T05:36:57;93298.41;;;19.45;65.28
59289;BME280;45056;47.602;9.886;2023-09-08T05:39:25;93308.47;;;19.49;65.17
59289;BME280;45056;47.602;9.886;2023-09-08T05:41:53;93297.22;;;19.52;65.18
59289;BME280;45056;47.602;9.886;2023-09-08T05:44:21;93302.47;;;19.56;65.27
59289;BME280;45056;47.602;9.886;2023-09-08T05:46:50;93303.00;;;19.60;65.31
59289;BME280;45056;47.602;9.886;2023-09-08T05:49:18;93309.06;;;19.64;65.48
59289;BME280;45056;47.602;9.886;2023-09-08T05:51:48;93308.84;;;19.68;65.54
59289;BME280;45056;47.602;9.886;2023-09-08T05:54:16;93309.88;;;19.76;65.61
59289;BME280;45056;47.602;9.886;2023-09-08T05:56:44;93308.66;;;19.83;65.39
59289;BME280;45056;47.602;9.886;2023-09-08T05:59:12;93314.25;;;19.88;65.54
59289;BME280;45056;47.602;9.886;2023-09-08T06:01:41;93314.28;;;19.94;65.50
59289;BME280;45056;47.602;9.886;2023-09-08T06:04:10;93314.81;;;19.98;65.40
59289;BME280;45056;47.602;9.886;2023-09-08T06:06:38;93311.06;;;20.01;65.59
59289;BME280;45056;47.602;9.886;2023-09-08T06:09:06;93313.09;;;20.07;65.86
59289;BME280;45056;47.602;9.886;2023-09-08T06:11:35;93320.66;;;20.12;65.59
59289;BME280;45056;47.602;9.886;2023-09-08T06:14:03;93318.19;;;20.20;65.51
59289;BME280;45056;47.602;9.886;2023-09-08T06:16:31;93318.44;;;20.27;65.61
59289;BME280;45056;47.602;9.886;2023-09-08T06:18:59;93318.75;;;20.35;65.72
59289;BME280;45056;47.602;9.886;2023-09-08T06:21:31;93319.78;;;20.43;66.19
59289;BME280;45056;47.602;9.886;2023-09-08T06:23:59;93320.81;;;20.52;66.79
59289;BME280;45056;47.602;9.886;2023-09-08T06:26:26;93328.88;;;20.61;68.20
59289;BME280;45056;47.602;9.886;2023-09-08T06:28:54;93320.88;;;20.69;69.30
59289;BME280;45056;47.602;9.886;2023-09-08T06:31:26;93323.91;;;20.76;69.77
59289;BME280;45056;47.602;9.886;2023-09-08T06:33:54;93326.69;;;20.82;69.76
59289;BME280;45056;47.602;9.886;2023-09-08T06:36:22;93328.22;;;20.89;69.88
59289;BME280;45056;47.602;9.886;2023-09-08T06:38:52;93315.94;;;20.96;69.99
59289;BME280;45056;47.602;9.886;2023-09-08T06:41:20;93320.97;;;21.03;69.83
59289;BME280;45056;47.602;9.886;2023-09-08T06:43:49;93321.72;;;21.09;69.81
59289;BME280;45056;47.602;9.886;2023-09-08T06:46:17;93313.44;;;21.15;69.70
59289;BME280;45056;47.602;9.886;2023-09-08T06:48:45;93316.19;;;21.21;69.74
59289;BME280;45056;47.602;9.886;2023-09-08T06:51:13;93316.19;;;21.26;69.61
59289;BME280;45056;47.602;9.886;2023-09-08T06:53:42;93318.97;;;21.32;69.49
59289;BME280;45056;47.602;9.886;2023-09-08T06:56:12;93317.97;;;21.41;69.14
59289;BME280;45056;47.602;9.886;2023-09-08T06:58:40;93319.47;;;21.53;68.83
59289;BME280;45056;47.602;9.886;2023-09-08T07:01:08;93323.25;;;21.79;68.09
59289;BME280;45056;47.602;9.886;2023-09-08T07:03:36;93317.91;;;22.09;67.13
59289;BME280;45056;47.602;9.886;2023-09-08T07:06:04;93324.91;;;22.27;66.42
59289;BME280;45056;47.602;9.886;2023-09-08T07:08:32;93319.59;;;22.35;66.18
59289;BME280;45056;47.602;9.886;2023-09-08T07:11:00;93324.84;;;22.39;66.08
59289;BME280;45056;47.602;9.886;2023-09-08T07:13:30;93318.03;;;22.40;65.96
59289;BME280;45056;47.602;9.886;2023-09-08T07:15:58;93315.50;;;22.42;65.94
59289;BME280;45056;47.602;9.886;2023-09-08T07:18:26;93328.88;;;22.43;65.63
59289;BME280;45056;47.602;9.886;2023-09-08T07:20:55;93322.81;;;22.45;65.37
59289;BME280;45056;47.602;9.886;2023-09-08T07:23:22;93324.34;;;22.46;65.30
59289;BME280;45056;47.602;9.886;2023-09-08T07:25:50;93325.09;;;22.46;64.81
59289;BME280;45056;47.602;9.886;2023-09-08T07:28:19;93323.59;;;22.51;64.62
59289;BME280;45056;47.602;9.886;2023-09-08T07:30:48;93326.84;;;22.55;64.66
59289;BME280;45056;47.602;9.886;2023-09-08T07:33:16;93324.53;;;22.59;64.74
59289;BME280;45056;47.602;9.886;2023-09-08T07:35:45;93326.28;;;22.62;64.67
59289;BME280;45056;47.602;9.886;2023-09-08T07:38:13;93332.56;;;22.69;64.48
59289;BME280;45056;47.602;9.886;2023-09-08T07:40:41;93330.50;;;22.75;64.44
59289;BME280;45056;47.602;9.886;2023-09-08T07:43:09;93338.78;;;22.86;64.77
59289;BME280;45056;47.602;9.886;2023-09-08T07:45:37;93329.91;;;22.99;65.22
59289;BME280;45056;47.602;9.886;2023-09-08T07:48:08;93330.34;;;23.09;64.89
59289;BME280;45056;47.602;9.886;2023-09-08T07:50:36;93339.38;;;23.15;64.41
59289;BME280;45056;47.602;9.886;2023-09-08T07:53:05;93337.06;;;23.19;64.06
59289;BME280;45056;47.602;9.886;2023-09-08T07:55:33;93339.56;;;23.23;64.03
59289;BME280;45056;47.602;9.886;2023-09-08T07:58:02;93344.13;;;23.26;63.88
59289;BME280;45056;47.602;9.886;2023-09-08T08:00:31;93336.53;;;23.27;64.06
59289;BME280;45056;47.602;9.886;2023-09-08T08:02:59;93331.75;;;23.27;63.86
59289;BME280;45056;47.602;9.886;2023-09-08T08:05:28;93330.72;;;23.30;63.76
59289;BME280;45056;47.602;9.886;2023-09-08T08:07:56;93340.03;;;23.33;63.76
59289;BME280;45056;47.602;9.886;2023-09-08T08:10:24;93334.72;;;23.35;63.47
59289;BME280;45056;47.602;9.886;2023-09-08T08:12:52;93337.72;;;23.37;63.28
59289;BME280;45056;47.602;9.886;2023-09-08T08:15:21;93329.13;;;23.41;63.20
59289;BME280;45056;47.602;9.886;2023-09-08T08:17:50;93339.44;;;23.46;63.51
59289;BME280;45056;47.602;9.886;2023-09-08T08:20:18;93334.63;;;23.46;63.12
59289;BME280;45056;47.602;9.886;2023-09-08T08:22:47;93332.09;;;23.48;62.88
59289;BME280;45056;47.602;9.886;2023-09-08T08:25:15;93327.00;;;23.53;62.69
59289;BME280;45056;47.602;9.886;2023-09-08T08:27:43;93331.53;;;23.56;62.65
59289;BME280;45056;47.602;9.886;2023-09-08T08:30:12;93328.47;;;23.59;62.62
59289;BME280;45056;47.602;9.886;2023-09-08T08:32:40;93338.00;;;23.64;61.86
59289;BME280;45056;47.602;9.886;2023-09-08T08:35:08;93332.94;;;23.68;61.40
59289;BME280;45056;47.602;9.886;2023-09-08T08:37:36;93331.91;;;23.71;61.13
59289;BME280;45056;47.602;9.886;2023-09-08T08:40:10;93333.66;;;23.74;60.72
59289;BME280;45056;47.602;9.886;2023-09-08T08:42:39;93330.56;;;23.78;60.65
59289;BME280;45056;47.602;9.886;2023-09-08T08:45:09;93328.78;;;23.81;60.59
59289;BME280;45056;47.602;9.886;2023-09-08T08:47:39;93335.31;;;23.83;60.28
59289;BME280;45056;47.602;9.886;2023-09-08T08:50:09;93332.50;;;23.89;60.30
59289;BME280;45056;47.602;9.886;2023-09-08T08:52:38;93329.44;;;23.92;60.05
59289;BME280;45056;47.602;9.886;2023-09-08T08:55:09;93337.47;;;24.02;61.02
59289;BME280;45056;47.602;9.886;2023-09-08T08:57:39;93341.09;;;24.16;61.94
59289;BME280;45056;47.602;9.886;2023-09-08T09:00:09;93341.97;;;24.30;62.52
59289;BME280;45056;47.602;9.886;2023-09-08T09:02:41;93339.06;;;24.41;62.60
59289;BME280;45056;47.602;9.886;2023-09-08T09:05:11;93330.88;;;24.49;62.85
59289;BME280;45056;47.602;9.886;2023-09-08T09:07:42;93330.06;;;24.54;62.57
59289;BME280;45056;47.602;9.886;2023-09-08T09:10:11;93331.78;;;24.57;62.43
59289;BME280;45056;47.602;9.886;2023-09-08T09:12:41;93326.22;;;24.57;62.35
59289;BME280;45056;47.602;9.886;2023-09-08T09:15:09;93335.09;;;24.56;62.18
59289;BME280;45056;47.602;9.886;2023-09-08T09:17:38;93327.28;;;24.54;61.92
59289;BME280;45056;47.602;9.886;2023-09-08T09:20:14;93317.97;;;24.52;61.91
59289;BME280;45056;47.602;9.886;2023-09-08T09:22:44;93324.28;;;24.52;61.91
59289;BME280;45056;47.602;9.886;2023-09-08T09:25:22;93327.06;;;24.52;62.04
59289;BME280;45056;47.602;9.886;2023-09-08T09:27:52;93330.06;;;24.54;62.38
59289;BME280;45056;47.602;9.886;2023-09-08T09:30:21;93324.72;;;24.56;62.10
59289;BME280;45056;47.602;9.886;2023-09-08T09:32:59;93320.44;;;24.55;61.77
59289;BME280;45056;47.602;9.886;2023-09-08T09:35:42;93328.28;;;24.57;61.72
59289;BME280;45056;47.602;9.886;2023-09-08T09:38:12;93318.41;;;24.56;61.65
59289;BME280;45056;47.602;9.886;2023-09-08T09:40:41;93314.13;;;24.55;61.43
59289;BME280;45056;47.602;9.886;2023-09-08T09:43:11;93317.44;;;24.53;61.29
59289;BME280;45056;47.602;9.886;2023-09-08T09:45:41;93319.16;;;24.56;61.19
59289;BME280;45056;47.602;9.886;2023-09-08T09:48:10;93324.66;;;24.62;61.31
59289;BME280;45056;47.602;9.886;2023-09-08T09:50:40;93320.31;;;24.67;60.55
59289;BME280;45056;47.602;9.886;2023-09-08T09:53:11;93317.69;;;24.74;60.90
59289;BME280;45056;47.602;9.886;2023-09-08T09:55:43;93316.34;;;24.81;60.75
59289;BME280;45056;47.602;9.886;2023-09-08T09:58:11;93318.53;;;24.88;60.57
59289;BME280;45056;47.602;9.886;2023-09-08T10:00:40;93309.03;;;24.97;60.17
59289;BME280;45056;47.602;9.886;2023-09-08T10:03:14;93321.41;;;25.02;59.43
59289;BME280;45056;47.602;9.886;2023-09-08T10:05:42;93325.91;;;25.05;59.04
59289;BME280;45056;47.602;9.886;2023-09-08T10:08:13;93315.22;;;25.09;59.08
59289;BME280;45056;47.602;9.886;2023-09-08T10:10:45;93318.16;;;25.17;58.61
59289;BME280;45056;47.602;9.886;2023-09-08T10:13:21;93315.03;;;25.20;58.32
59289;BME280;45056;47.602;9.886;2023-09-08T10:15:58;93312.47;;;25.23;57.90
59289;BME280;45056;47.602;9.886;2023-09-08T10:18:32;93310.91;;;25.27;57.88
59289;BME280;45056;47.602;9.886;2023-09-08T10:21:04;93312.41;;;25.28;57.57
59289;BME280;45056;47.602;9.886;2023-09-08T10:23:36;93314.13;;;25.31;57.45
59289;BME280;45056;47.602;9.886;2023-09-08T10:26:11;93306.41;;;25.38;57.28
59289;BME280;45056;47.602;9.886;2023-09-08T10:28:39;93300.56;;;25.41;56.55
59289;BME280;45056;47.602;9.886;2023-09-08T10:31:09;93305.81;;;25.45;56.30
59289;BME280;45056;47.602;9.886;2023-09-08T10:33:38;93301.75;;;25.46;55.28
59289;BME280;45056;47.602;9.886;2023-09-08T10:36:08;93306.28;;;25.49;53.90
59289;BME280;45056;47.602;9.886;2023-09-08T10:38:38;93304.47;;;25.52;53.31
59289;BME280;45056;47.602;9.886;2023-09-08T10:41:27;93309.50;;;25.53;52.93
59289;BME280;45056;47.602;9.886;2023-09-08T10:44:02;93311.75;;;25.55;52.26
59289;BME280;45056;47.602;9.886;2023-09-08T10:46:33;93302.31;;;25.58;51.52
59289;BME280;45056;47.602;9.886;2023-09-08T10:49:03;93309.66;;;25.61;52.16
59289;BME280;45056;47.602;9.886;2023-09-08T10:51:34;93308.34;;;25.62;52.82
59289;BME280;45056;47.602;9.886;2023-09-08T10:54:02;93312.66;;;25.63;53.01
59289;BME280;45056;47.602;9.886;2023-09-08T10:56:48;93319.94;;;25.66;52.78
59289;BME280;45056;47.602;9.886;2023-09-08T10:59:22;93314.59;;;25.68;52.67
59289;BME280;45056;47.602;9.886;2023-09-08T11:01:55;93314.38;;;25.66;52.63
59289;BME280;45056;47.602;9.886;2023-09-08T11:04:23;93314.59;;;25.68;52.57
59289;BME280;45056;47.602;9.886;2023-09-08T11:06:56;93306.44;;;25.70;52.42
59289;BME280;45056;47.602;9.886;2023-09-08T11:09:24;93305.16;;;25.71;51.95
59289;BME280;45056;47.602;9.886;2023-09-08T11:11:53;93311.69;;;25.74;52.38
59289;BME280;45056;47.602;9.886;2023-09-08T11:14:21;93309.88;;;25.76;53.13
59289;BME280;45056;47.602;9.886;2023-09-08T11:16:49;93311.59;;;25.79;52.57
59289;BME280;45056;47.602;9.886;2023-09-08T11:19:17;93306.66;;;25.86;52.45
59289;BME280;45056;47.602;9.886;2023-09-08T11:21:47;93314.63;;;25.95;52.77
59289;BME280;45056;47.602;9.886;2023-09-08T11:24:16;93307.13;;;26.03;52.21
59289;BME280;45056;47.602;9.886;2023-09-08T11:26:45;93303.63;;;26.16;51.82
59289;BME280;45056;47.602;9.886;2023-09-08T11:29:18;93304.91;;;26.29;51.40
59289;BME280;45056;47.602;9.886;2023-09-08T11:31:51;93302.84;;;26.43;52.87
59289;BME280;45056;47.602;9.886;2023-09-08T11:34:21;93311.22;;;26.56;52.39
59289;BME280;45056;47.602;9.886;2023-09-08T11:36:49;93303.91;;;26.67;52.07
59289;BME280;45056;47.602;9.886;2023-09-08T11:39:18;93304.53;;;26.73;51.80
59289;BME280;45056;47.602;9.886;2023-09-08T11:41:46;93300.34;;;26.79;51.59
59289;BME280;45056;47.602;9.886;2023-09-08T11:44:15;93308.28;;;26.89;52.11
59289;BME280;45056;47.602;9.886;2023-09-08T11:46:46;93307.09;;;26.98;50.29
59289;BME280;45056;47.602;9.886;2023-09-08T11:49:18;93307.72;;;27.04;49.90
59289;BME280;45056;47.602;9.886;2023-09-08T11:51:46;93304.03;;;27.09;50.39
59289;BME280;45056;47.602;9.886;2023-09-08T11:54:15;93301.13;;;27.15;51.73
59289;BME280;45056;47.602;9.886;2023-09-08T11:56:43;93299.34;;;27.25;51.03
59289;BME280;45056;47.602;9.886;2023-09-08T11:59:13;93299.44;;;27.33;51.09
59289;BME280;45056;47.602;9.886;2023-09-08T12:01:41;93305.63;;;27.39;49.33
59289;BME280;45056;47.602;9.886;2023-09-08T12:04:18;93299.59;;;27.48;48.34
59289;BME280;45056;47.602;9.886;2023-09-08T12:06:48;93301.16;;;27.57;48.14
59289;BME280;45056;47.602;9.886;2023-09-08T12:09:17;93300.16;;;27.68;47.92
59289;BME280;45056;47.602;9.886;2023-09-08T12:11:45;93302.69;;;27.79;46.94
59289;BME280;45056;47.602;9.886;2023-09-08T12:14:14;93297.88;;;27.88;47.18
59289;BME280;45056;47.602;9.886;2023-09-08T12:16:43;93293.28;;;27.98;48.30
59289;BME280;45056;47.602;9.886;2023-09-08T12:19:30;93289.25;;;28.07;46.57
59289;BME280;45056;47.602;9.886;2023-09-08T12:22:01;93290.06;;;28.15;44.78
59289;BME280;45056;47.602;9.886;2023-09-08T12:24:46;93290.13;;;28.23;44.34
59289;BME280;45056;47.602;9.886;2023-09-08T12:27:16;93289.63;;;28.32;45.29
59289;BME280;45056;47.602;9.886;2023-09-08T12:29:55;93285.03;;;28.43;45.86
59289;BME280;45056;47.602;9.886;2023-09-08T12:32:25;93287.09;;;28.50;45.19
59289;BME280;45056;47.602;9.886;2023-09-08T12:34:55;93282.09;;;28.56;44.87
59289;BME280;45056;47.602;9.886;2023-09-08T12:37:24;93278.75;;;28.58;44.47
59289;BME280;45056;47.602;9.886;2023-09-08T12:39:54;93279.34;;;28.64;44.77
59289;BME280;45056;47.602;9.886;2023-09-08T12:42:23;93279.91;;;28.70;45.26
59289;BME280;45056;47.602;9.886;2023-09-08T12:44:52;93279.75;;;28.76;45.04
59289;BME280;45056;47.602;9.886;2023-09-08T12:47:20;93279.19;;;28.77;45.55
59289;BME280;45056;47.602;9.886;2023-09-08T12:49:48;93280.38;;;28.82;43.12
59289;BME280;45056;47.602;9.886;2023-09-08T12:52:18;93271.59;;;28.86;42.39
59289;BME280;45056;47.602;9.886;2023-09-08T12:54:45;93271.44;;;28.91;42.27
59289;BME280;45056;47.602;9.886;2023-09-08T12:57:13;93268.81;;;28.93;43.96
59289;BME280;45056;47.602;9.886;2023-09-08T12:59:41;93265.84;;;28.99;44.33
59289;BME280;45056;47.602;9.886;2023-09-08T13:02:09;93265.13;;;29.06;44.73
59289;BME280;45056;47.602;9.886;2023-09-08T13:04:39;93261.38;;;29.12;44.45
59289;BME280;45056;47.602;9.886;2023-09-08T13:07:06;93261.78;;;29.16;44.26
59289;BME280;45056;47.602;9.886;2023-09-08T13:09:36;93259.91;;;29.18;44.01
59289;BME280;45056;47.602;9.886;2023-09-08T13:12:04;93254.69;;;29.22;42.19
59289;BME280;45056;47.602;9.886;2023-09-08T13:14:33;93258.81;;;29.21;41.90
59289;BME280;45056;47.602;9.886;2023-09-08T13:17:02;93259.94;;;29.26;41.84
59289;BME280;45056;47.602;9.886;2023-09-08T13:19:30;93255.81;;;29.27;42.27
59289;BME280;45056;47.602;9.886;2023-09-08T13:21:59;93246.66;;;29.27;42.84
59289;BME280;45056;47.602;9.886;2023-09-08T13:24:27;93243.13;;;29.26;42.75
59289;BME280;45056;47.602;9.886;2023-09-08T13:26:56;93242.19;;;29.23;42.48
59289;BME280;45056;47.602;9.886;2023-09-08T13:29:24;93240.88;;;29.25;43.17
59289;BME280;45056;47.602;9.886;2023-09-08T13:31:54;93239.75;;;29.28;43.41
59289;BME280;45056;47.602;9.886;2023-09-08T13:34:22;93243.16;;;29.34;43.24
59289;BME280;45056;47.602;9.886;2023-09-08T13:36:50;93240.53;;;29.36;43.56
59289;BME280;45056;47.602;9.886;2023-09-08T13:39:18;93233.81;;;29.39;43.27
59289;BME280;45056;47.602;9.886;2023-09-08T13:41:47;93235.69;;;29.44;42.92
59289;BME280;45056;47.602;9.886;2023-09-08T13:44:20;93230.81;;;29.45;42.90
59289;BME280;45056;47.602;9.886;2023-09-08T13:46:49;93237.19;;;29.45;42.70
59289;BME280;45056;47.602;9.886;2023-09-08T13:49:18;93232.72;;;29.42;42.13
59289;BME280;45056;47.602;9.886;2023-09-08T13:51:46;93228.59;;;29.43;43.10
59289;BME280;45056;47.602;9.886;2023-09-08T13:54:14;93234.56;;;29.47;43.31
59289;BME280;45056;47.602;9.886;2023-09-08T13:56:42;93218.50;;;29.48;42.93
59289;BME280;45056;47.602;9.886;2023-09-08T13:59:10;93224.66;;;29.46;43.38
59289;BME280;45056;47.602;9.886;2023-09-08T14:01:40;93223.91;;;29.46;43.44
59289;BME280;45056;47.602;9.886;2023-09-08T14:04:08;93225.97;;;29.45;43.74